Time;durP1;ratioP1;P1;durP2;ratioP2;P2;SDS_P1;SDS_P2;PMS_P1;PMS_P2;Temp;Humidity;BMP_temperature;BMP_pressure;BME280_temperature;BME280_humidity;BME280_pressure;Samples;Min_cycle;Max_cycle;Signal;HPM_P1;HPM_P2
2022/03/08 00:00:49;;;;;;;7.43;2.80;;;0.90;99.90;;;;;;5177658;28;20430;-47
2022/03/08 00:03:19;;;;;;;7.60;2.93;;;0.90;99.90;;;;;;5179049;28;20240;-48
2022/03/08 00:05:50;;;;;;;3.80;2.70;;;0.90;99.90;;;;;;5178130;28;20176;-48
2022/03/08 00:08:21;;;;;;;2.33;2.23;;;0.90;99.90;;;;;;5173973;28;20299;-47
2022/03/08 00:10:51;;;;;;;8.00;3.17;;;0.80;99.90;;;;;;5178103;28;20710;-47
2022/03/08 00:13:22;;;;;;;4.07;3.23;;;0.80;99.90;;;;;;5164796;28;20765;-49
2022/03/08 00:15:52;;;;;;;7.40;3.23;;;0.70;99.90;;;;;;5184188;28;20271;-48
2022/03/08 00:18:23;;;;;;;4.63;4.20;;;0.70;99.90;;;;;;5182560;28;20184;-47
2022/03/08 00:20:53;;;;;;;5.00;3.80;;;0.70;99.90;;;;;;5180822;28;20193;-47
2022/03/08 00:23:24;;;;;;;4.80;3.40;;;0.70;99.90;;;;;;5183073;28;20283;-47
2022/03/08 00:25:55;;;;;;;6.53;3.80;;;0.70;99.90;;;;;;5179416;28;20274;-47
2022/03/08 00:28:27;;;;;;;7.93;3.70;;;0.70;99.90;;;;;;5185805;28;20526;-48
2022/03/08 00:30:57;;;;;;;4.80;3.83;;;0.70;99.90;;;;;;5180798;28;20259;-47
2022/03/08 00:33:28;;;;;;;6.80;4.07;;;0.60;99.90;;;;;;5182323;28;20529;-47
2022/03/08 00:35:58;;;;;;;10.90;4.37;;;0.60;99.90;;;;;;5182092;28;20184;-49
2022/03/08 00:38:29;;;;;;;6.80;4.53;;;0.60;99.90;;;;;;5185247;28;20181;-48
2022/03/08 00:41:00;;;;;;;11.27;5.50;;;0.60;99.90;;;;;;5179408;28;20179;-48
2022/03/08 00:43:31;;;;;;;5.00;3.93;;;0.60;99.90;;;;;;5181679;28;20211;-48
2022/03/08 00:46:02;;;;;;;9.33;4.63;;;0.60;99.90;;;;;;5185714;28;20447;-48
2022/03/08 00:48:32;;;;;;;5.80;3.27;;;0.60;99.90;;;;;;5183445;28;20666;-46
2022/03/08 00:51:03;;;;;;;6.63;4.00;;;0.60;99.90;;;;;;5183503;28;20265;-46
2022/03/08 00:53:34;;;;;;;11.67;4.93;;;0.50;99.90;;;;;;5182475;28;20652;-48
2022/03/08 00:56:05;;;;;;;5.60;3.50;;;0.50;99.90;;;;;;5181416;28;20279;-48
2022/03/08 00:58:36;;;;;;;9.93;3.43;;;0.50;99.90;;;;;;5179187;28;20196;-48
2022/03/08 01:01:08;;;;;;;3.90;3.60;;;0.40;99.90;;;;;;5178555;28;20197;-48
2022/03/08 01:03:39;;;;;;;7.10;4.63;;;0.40;99.90;;;;;;5180152;28;20428;-49
2022/03/08 01:06:10;;;;;;;7.20;3.77;;;0.40;99.90;;;;;;5181843;28;21010;-49
2022/03/08 01:08:41;;;;;;;4.57;4.07;;;0.30;99.90;;;;;;5196395;28;20639;-47
2022/03/08 01:11:11;;;;;;;4.07;3.77;;;0.30;99.90;;;;;;5177463;28;20435;-48
2022/03/08 01:13:42;;;;;;;6.13;4.50;;;0.30;99.90;;;;;;5181833;28;20634;-48
2022/03/08 01:16:12;;;;;;;9.10;4.70;;;0.30;99.90;;;;;;5178619;28;20293;-48
2022/03/08 01:18:44;;;;;;;11.50;4.53;;;0.30;99.90;;;;;;5178386;28;20269;-47
2022/03/08 01:21:15;;;;;;;4.57;3.57;;;0.30;99.90;;;;;;5180959;28;20180;-49
2022/03/08 01:23:45;;;;;;;5.17;4.20;;;0.20;99.90;;;;;;5179238;28;20465;-48
2022/03/08 01:26:16;;;;;;;6.53;4.50;;;0.20;99.90;;;;;;5183401;28;20459;-48
2022/03/08 01:28:47;;;;;;;5.20;4.10;;;0.20;99.90;;;;;;5178736;28;20203;-46
2022/03/08 01:31:18;;;;;;;3.70;2.83;;;0.10;99.90;;;;;;5180457;28;20263;-47
2022/03/08 01:33:49;;;;;;;6.70;3.80;;;0.10;99.90;;;;;;5177325;28;20180;-48
2022/03/08 01:36:20;;;;;;;8.60;4.30;;;0.10;99.90;;;;;;5182240;28;20463;-47
2022/03/08 01:38:52;;;;;;;7.80;4.77;;;0.10;99.90;;;;;;5177305;28;20453;-48
2022/03/08 01:41:22;;;;;;;7.00;4.80;;;0.10;99.90;;;;;;5182172;28;20928;-47
2022/03/08 01:43:53;;;;;;;8.43;4.53;;;0.10;99.90;;;;;;5178925;28;20487;-48
2022/03/08 01:46:23;;;;;;;9.20;4.50;;;0.10;99.90;;;;;;5179799;28;20266;-47
2022/03/08 01:48:54;;;;;;;8.27;4.40;;;0.10;99.90;;;;;;5179111;28;20198;-47
2022/03/08 01:51:24;;;;;;;5.33;3.97;;;0.20;99.90;;;;;;5175645;28;20328;-46
2022/03/08 01:53:55;;;;;;;7.30;4.20;;;0.20;99.90;;;;;;5185310;28;20194;-47
2022/03/08 01:56:26;;;;;;;6.60;4.33;;;0.10;99.90;;;;;;5178764;28;20639;-46
2022/03/08 01:58:56;;;;;;;4.53;3.97;;;0.20;99.90;;;;;;5185885;28;20194;-46
2022/03/08 02:01:27;;;;;;;8.73;4.50;;;0.10;99.90;;;;;;5178869;28;20654;-46
2022/03/08 02:03:57;;;;;;;15.10;4.83;;;0.10;99.90;;;;;;5181779;28;20196;-47
2022/03/08 02:06:28;;;;;;;8.23;4.43;;;0.10;99.90;;;;;;5172817;28;20287;-46
2022/03/08 02:09:00;;;;;;;4.30;3.90;;;0.10;99.90;;;;;;5180221;28;20196;-46
2022/03/08 02:11:31;;;;;;;7.20;4.37;;;0.10;99.90;;;;;;5178362;28;20180;-47
2022/03/08 02:14:02;;;;;;;8.67;3.90;;;0.10;99.90;;;;;;5181318;28;20443;-46
2022/03/08 02:16:33;;;;;;;8.10;3.53;;;0.10;99.90;;;;;;5179143;28;20824;-48
2022/03/08 02:19:03;;;;;;;6.47;3.70;;;0.10;99.90;;;;;;5181307;28;20420;-48
2022/03/08 02:21:35;;;;;;;5.70;3.73;;;0.10;99.90;;;;;;5180296;28;20207;-45
2022/03/08 02:24:06;;;;;;;3.87;3.37;;;0.10;99.90;;;;;;5180854;28;20187;-46
2022/03/08 02:26:37;;;;;;;6.07;4.10;;;0.10;99.90;;;;;;5179671;28;20971;-47
2022/03/08 02:29:08;;;;;;;5.20;3.80;;;0.10;99.90;;;;;;5185721;28;20485;-48
2022/03/08 02:31:39;;;;;;;6.47;3.83;;;0.10;99.90;;;;;;5180160;28;20794;-48
2022/03/08 02:34:09;;;;;;;5.20;3.20;;;0.10;99.90;;;;;;5178074;28;20415;-45
2022/03/08 02:36:41;;;;;;;3.90;3.50;;;0.00;99.90;;;;;;5177786;28;20277;-47
2022/03/08 02:39:12;;;;;;;6.50;3.90;;;0.00;99.90;;;;;;5176907;28;20196;-48
2022/03/08 02:41:43;;;;;;;4.73;3.73;;;0.00;99.90;;;;;;5178924;28;20463;-47
2022/03/08 02:44:13;;;;;;;10.50;3.90;;;-0.10;99.90;;;;;;5178749;28;20675;-48
2022/03/08 02:46:44;;;;;;;6.07;4.13;;;-0.10;99.90;;;;;;5174753;28;20447;-48
2022/03/08 02:49:14;;;;;;;5.83;3.17;;;0.00;99.90;;;;;;5181459;28;20186;-46
2022/03/08 02:51:46;;;;;;;4.50;3.63;;;0.00;99.90;;;;;;5179641;28;20562;-47
2022/03/08 02:54:16;;;;;;;5.73;3.83;;;0.00;99.90;;;;;;5178085;28;20268;-46
2022/03/08 02:56:47;;;;;;;10.17;3.60;;;-0.10;99.90;;;;;;5175029;28;20576;-47
2022/03/08 02:59:22;;;;;;;3.30;3.10;;;-0.10;99.90;;;;;;5194261;28;20192;-46
2022/03/08 03:01:52;;;;;;;3.50;3.20;;;-0.10;99.90;;;;;;5177253;28;20959;-47
2022/03/08 03:04:23;;;;;;;4.93;4.07;;;-0.10;99.90;;;;;;5161314;28;20451;-47
2022/03/08 03:06:53;;;;;;;7.83;3.30;;;-0.20;99.90;;;;;;5179229;28;20231;-48
2022/03/08 03:09:24;;;;;;;5.13;3.87;;;-0.20;99.90;;;;;;5177764;28;20544;-48
2022/03/08 03:11:54;;;;;;;3.93;3.40;;;-0.20;99.90;;;;;;5177549;28;20268;-47
2022/03/08 03:14:25;;;;;;;3.37;3.17;;;-0.30;99.90;;;;;;5176444;28;20199;-47
2022/03/08 03:16:55;;;;;;;3.50;3.20;;;-0.30;99.90;;;;;;5177120;28;20238;-46
2022/03/08 03:19:26;;;;;;;5.40;4.23;;;-0.30;99.90;;;;;;5177614;28;20196;-49
2022/03/08 03:21:56;;;;;;;5.40;4.37;;;-0.30;99.90;;;;;;5176108;28;20565;-46
2022/03/08 03:24:27;;;;;;;6.17;3.50;;;-0.30;99.90;;;;;;5178271;28;20178;-48
2022/03/08 03:26:57;;;;;;;4.53;3.70;;;-0.30;99.90;;;;;;5180013;28;20223;-47
2022/03/08 03:29:28;;;;;;;4.80;3.77;;;-0.40;99.90;;;;;;5180573;28;20184;-49
2022/03/08 03:31:58;;;;;;;11.93;3.93;;;-0.40;99.90;;;;;;5177844;28;20199;-47
2022/03/08 03:34:29;;;;;;;9.27;5.00;;;-0.40;99.90;;;;;;5177203;28;20337;-49
2022/03/08 03:36:59;;;;;;;4.23;3.80;;;-0.40;99.90;;;;;;5177211;28;20698;-46
2022/03/08 03:39:30;;;;;;;8.77;4.30;;;-0.40;99.90;;;;;;5176149;28;20180;-47
2022/03/08 03:42:01;;;;;;;8.80;4.73;;;-0.40;99.90;;;;;;5174912;28;20209;-47
2022/03/08 03:44:31;;;;;;;4.70;4.30;;;-0.40;99.90;;;;;;5174494;28;20210;-49
2022/03/08 03:47:02;;;;;;;8.80;4.30;;;-0.50;99.90;;;;;;5161287;28;20207;-47
2022/03/08 03:49:33;;;;;;;5.87;3.93;;;-0.40;99.90;;;;;;5178855;28;20177;-47
2022/03/08 03:52:04;;;;;;;11.00;4.30;;;-0.50;99.90;;;;;;5177645;28;20244;-48
2022/03/08 03:54:34;;;;;;;7.10;4.17;;;-0.50;99.90;;;;;;5178872;28;20188;-49
2022/03/08 03:57:05;;;;;;;4.17;3.23;;;-0.50;99.90;;;;;;5206594;22;20506;-50
2022/03/08 03:59:35;;;;;;;9.00;4.37;;;-0.50;99.90;;;;;;5161120;28;20185;-50
2022/03/08 04:02:06;;;;;;;6.57;3.97;;;-0.50;99.90;;;;;;5177987;28;20207;-50
2022/03/08 04:04:37;;;;;;;3.20;2.87;;;-0.50;99.90;;;;;;5176341;28;20181;-49
2022/03/08 04:07:07;;;;;;;4.50;3.30;;;-0.50;99.90;;;;;;5182777;28;20200;-49
2022/03/08 04:09:38;;;;;;;5.90;3.90;;;-0.50;99.90;;;;;;5166356;28;20811;-51
2022/03/08 04:12:08;;;;;;;5.73;3.53;;;-0.60;99.90;;;;;;5164609;28;20231;-51
2022/03/08 04:14:39;;;;;;;3.80;3.37;;;-0.60;99.90;;;;;;5163744;28;20197;-50
2022/03/08 04:17:09;;;;;;;4.37;3.97;;;-0.60;99.90;;;;;;5166700;28;20322;-49
2022/03/08 04:19:43;;;;;;;2.90;2.70;;;-0.60;99.90;;;;;;5155344;28;20276;-51
2022/03/08 04:22:13;;;;;;;9.07;4.30;;;-0.60;99.90;;;;;;5166272;28;20268;-51
2022/03/08 04:24:44;;;;;;;6.93;4.33;;;-0.60;99.90;;;;;;5164945;28;20446;-51
2022/03/08 04:27:15;;;;;;;7.03;3.67;;;-0.60;99.90;;;;;;5168090;28;20217;-51
2022/03/08 04:29:45;;;;;;;5.97;3.70;;;-0.60;99.90;;;;;;5168779;28;20188;-51
2022/03/08 04:32:16;;;;;;;8.33;3.80;;;-0.60;99.90;;;;;;5175418;28;20636;-50
2022/03/08 04:34:46;;;;;;;6.40;3.03;;;-0.70;99.90;;;;;;5164271;28;20227;-50
2022/03/08 04:37:17;;;;;;;3.00;2.30;;;-0.70;99.90;;;;;;5165050;28;20273;-50
2022/03/08 04:39:48;;;;;;;3.47;3.17;;;-0.70;99.90;;;;;;5168708;28;20177;-49
2022/03/08 04:42:18;;;;;;;8.10;3.77;;;-0.80;99.90;;;;;;5163680;28;20272;-50
2022/03/08 04:44:49;;;;;;;3.23;2.93;;;-0.80;99.90;;;;;;5160733;28;20221;-49
2022/03/08 04:47:19;;;;;;;5.30;3.17;;;-0.80;99.90;;;;;;5172096;28;20200;-50
2022/03/08 04:49:50;;;;;;;3.53;3.23;;;-0.80;99.90;;;;;;5160409;28;20205;-50
2022/03/08 04:52:21;;;;;;;4.93;3.63;;;-0.80;99.90;;;;;;5165794;28;20242;-49
2022/03/08 04:54:51;;;;;;;5.30;3.40;;;-0.80;99.90;;;;;;5166254;28;20189;-51
2022/03/08 04:57:22;;;;;;;8.07;4.10;;;-0.80;99.90;;;;;;5164799;28;20220;-50
2022/03/08 04:59:52;;;;;;;9.77;4.53;;;-0.80;99.90;;;;;;5161430;28;20186;-50
2022/03/08 05:02:23;;;;;;;4.43;4.03;;;-0.80;99.90;;;;;;5167870;28;20207;-50
2022/03/08 05:04:53;;;;;;;6.17;4.63;;;-0.70;99.90;;;;;;5165289;28;20189;-51
2022/03/08 05:07:24;;;;;;;3.23;3.03;;;-0.60;99.90;;;;;;5165723;28;20211;-50
2022/03/08 05:09:54;;;;;;;3.97;3.67;;;-0.60;99.90;;;;;;5161763;28;20630;-50
2022/03/08 05:12:25;;;;;;;4.80;4.30;;;-0.60;99.90;;;;;;5164989;28;20735;-51
2022/03/08 05:14:55;;;;;;;5.67;3.87;;;-0.60;99.90;;;;;;5164705;28;20180;-51
2022/03/08 05:17:26;;;;;;;4.47;3.30;;;-0.60;99.90;;;;;;5170254;28;20700;-51
2022/03/08 05:19:56;;;;;;;6.03;3.50;;;-0.60;99.90;;;;;;5164281;28;20190;-51
2022/03/08 05:22:27;;;;;;;4.23;3.43;;;-0.60;99.90;;;;;;5167812;28;20200;-50
2022/03/08 05:24:58;;;;;;;11.70;3.37;;;-0.60;99.90;;;;;;5159726;28;20185;-50
2022/03/08 05:27:28;;;;;;;4.70;3.60;;;-0.70;99.90;;;;;;5167232;28;20197;-51
2022/03/08 05:29:59;;;;;;;3.57;3.33;;;-0.70;99.90;;;;;;5162804;28;20177;-51
2022/03/08 05:32:30;;;;;;;3.20;3.00;;;-0.70;99.90;;;;;;5161692;28;20579;-51
2022/03/08 05:35:00;;;;;;;5.50;4.40;;;-0.70;99.90;;;;;;5170270;28;20189;-51
2022/03/08 05:37:31;;;;;;;6.70;3.47;;;-0.70;99.90;;;;;;5168035;28;20478;-50
2022/03/08 05:40:02;;;;;;;8.40;3.73;;;-0.70;99.90;;;;;;5160694;28;20208;-51
2022/03/08 05:42:33;;;;;;;9.00;4.90;;;-0.60;99.90;;;;;;5165669;28;20273;-49
2022/03/08 05:45:09;;;;;;;6.80;4.00;;;-0.60;99.90;;;;;;5163995;28;20512;-51
2022/03/08 05:47:40;;;;;;;3.93;3.63;;;-0.70;99.90;;;;;;5163915;28;20200;-50
2022/03/08 05:50:12;;;;;;;6.27;3.83;;;-0.60;99.90;;;;;;5158801;28;21016;-50
2022/03/08 05:52:42;;;;;;;26.97;4.17;;;-0.60;99.90;;;;;;5158797;28;21044;-50
2022/03/08 05:55:13;;;;;;;8.33;4.00;;;-0.70;99.90;;;;;;5165043;28;20432;-51
2022/03/08 05:57:44;;;;;;;4.73;3.80;;;-0.60;99.90;;;;;;5163266;28;20228;-50
2022/03/08 06:00:14;;;;;;;6.80;4.13;;;-0.60;99.90;;;;;;5165310;28;20930;-52
2022/03/08 06:02:45;;;;;;;4.40;4.00;;;-0.60;99.90;;;;;;5160608;28;20201;-51
2022/03/08 06:05:16;;;;;;;4.40;3.97;;;-0.50;99.90;;;;;;5158460;28;20261;-50
2022/03/08 06:07:46;;;;;;;7.63;5.13;;;-0.40;99.90;;;;;;5166965;28;20212;-51
2022/03/08 06:10:17;;;;;;;3.60;3.30;;;-0.40;99.90;;;;;;5162893;28;20184;-51
2022/03/08 06:12:47;;;;;;;4.53;4.10;;;-0.20;99.90;;;;;;5162074;28;20209;-51
2022/03/08 06:15:18;;;;;;;4.67;3.83;;;0.00;99.90;;;;;;5160738;28;20188;-50
2022/03/08 06:17:48;;;;;;;3.60;3.40;;;0.20;99.90;;;;;;5160210;28;20242;-50
2022/03/08 06:20:19;;;;;;;5.90;4.03;;;0.50;99.90;;;;;;5168141;28;20200;-50
2022/03/08 06:22:49;;;;;;;6.40;4.07;;;0.60;99.90;;;;;;5141837;28;22505;-50
2022/03/08 06:25:20;;;;;;;7.47;5.00;;;0.70;99.90;;;;;;5165162;28;20185;-51
2022/03/08 06:27:51;;;;;;;4.63;3.90;;;0.70;99.90;;;;;;5161794;28;20211;-51
2022/03/08 06:30:21;;;;;;;4.63;3.83;;;0.80;99.90;;;;;;5164454;28;20182;-51
2022/03/08 06:32:52;;;;;;;4.67;4.10;;;0.90;99.90;;;;;;5172026;28;20191;-50
2022/03/08 06:35:22;;;;;;;7.60;4.67;;;1.10;99.90;;;;;;5159546;28;20203;-50
2022/03/08 06:37:53;;;;;;;4.57;3.90;;;1.70;99.90;;;;;;5156374;28;20244;-50
2022/03/08 06:40:24;;;;;;;4.60;4.30;;;3.00;99.90;;;;;;5161217;28;20541;-50
2022/03/08 06:42:54;;;;;;;5.47;3.97;;;5.30;99.90;;;;;;5160812;28;20219;-50
2022/03/08 06:45:25;;;;;;;5.03;4.03;;;7.90;99.90;;;;;;5167624;28;20699;-50
2022/03/08 06:47:55;;;;;;;8.90;5.10;;;10.20;72.00;;;;;;5164451;28;20204;-50
2022/03/08 06:50:26;;;;;;;5.40;4.10;;;12.10;54.80;;;;;;5167973;28;20189;-51
2022/03/08 06:52:56;;;;;;;5.83;4.50;;;13.50;49.00;;;;;;5160753;28;20185;-50
2022/03/08 06:55:27;;;;;;;5.83;4.87;;;14.60;45.20;;;;;;5167005;28;20196;-50
2022/03/08 06:57:57;;;;;;;5.93;4.77;;;15.50;42.80;;;;;;5158544;28;20224;-51
2022/03/08 07:00:28;;;;;;;5.77;4.63;;;16.20;40.60;;;;;;5166039;28;20344;-50
2022/03/08 07:02:59;;;;;;;4.90;4.23;;;16.70;39.00;;;;;;5168858;28;20208;-51
2022/03/08 07:05:29;;;;;;;11.50;4.90;;;17.20;37.90;;;;;;5161409;28;20609;-51
2022/03/08 07:08:00;;;;;;;7.03;5.33;;;17.50;36.10;;;;;;5190168;28;20207;-50
2022/03/08 07:10:30;;;;;;;7.00;4.97;;;17.70;35.30;;;;;;5161824;28;20189;-51
2022/03/08 07:13:01;;;;;;;7.20;5.87;;;17.60;34.50;;;;;;5157103;28;20296;-51
2022/03/08 07:15:33;;;;;;;7.80;5.10;;;17.60;35.20;;;;;;5157933;28;20184;-50
2022/03/08 07:18:03;;;;;;;8.97;5.97;;;17.90;34.60;;;;;;5151244;28;20329;-51
2022/03/08 07:20:34;;;;;;;5.90;5.30;;;17.50;34.10;;;;;;5165591;28;20470;-51
2022/03/08 07:23:04;;;;;;;5.40;4.97;;;17.50;34.30;;;;;;5161589;28;20702;-51
2022/03/08 07:25:35;;;;;;;10.30;5.70;;;17.70;34.30;;;;;;5148879;28;20184;-51
2022/03/08 07:28:05;;;;;;;8.27;5.30;;;17.80;34.10;;;;;;5160739;28;20193;-51
2022/03/08 07:30:36;;;;;;;12.07;5.93;;;18.40;33.90;;;;;;5157799;28;20596;-51
2022/03/08 07:33:07;;;;;;;7.00;5.23;;;18.60;32.60;;;;;;5159098;28;20197;-52
2022/03/08 07:35:37;;;;;;;5.63;5.10;;;18.80;32.60;;;;;;5158755;28;20439;-51
2022/03/08 07:38:08;;;;;;;8.37;5.57;;;19.10;32.60;;;;;;5157615;28;20216;-50
2022/03/08 07:40:39;;;;;;;8.27;5.90;;;19.20;31.50;;;;;;5159817;28;20184;-49
2022/03/08 07:43:10;;;;;;;10.53;5.30;;;18.50;31.60;;;;;;5162762;28;20216;-50
2022/03/08 07:45:40;;;;;;;9.20;6.17;;;18.20;32.90;;;;;;5168134;28;20181;-51
2022/03/08 07:48:11;;;;;;;10.93;5.90;;;18.60;32.60;;;;;;5166771;28;20440;-51
2022/03/08 07:50:42;;;;;;;10.70;5.10;;;19.10;31.80;;;;;;5162715;28;20176;-51
2022/03/08 07:53:12;;;;;;;6.07;5.47;;;19.50;31.40;;;;;;5167574;28;20185;-51
2022/03/08 07:55:43;;;;;;;10.97;6.33;;;19.10;31.00;;;;;;5160677;28;20254;-52
2022/03/08 07:58:14;;;;;;;9.57;6.17;;;18.20;32.00;;;;;;5165540;28;20223;-51
2022/03/08 08:00:45;;;;;;;7.33;6.17;;;16.80;33.90;;;;;;5167874;28;20181;-50
2022/03/08 08:03:15;;;;;;;6.70;5.90;;;14.80;36.00;;;;;;5163441;28;20470;-51
2022/03/08 08:05:46;;;;;;;9.73;6.63;;;12.60;39.20;;;;;;5160814;28;20437;-51
2022/03/08 08:08:17;;;;;;;9.00;6.27;;;10.80;42.30;;;;;;5162913;28;20205;-51
2022/03/08 08:10:47;;;;;;;6.50;4.80;;;9.40;47.00;;;;;;5164006;28;20184;-53
2022/03/08 08:13:18;;;;;;;12.90;6.27;;;8.20;48.70;;;;;;5154523;28;20621;-50
2022/03/08 08:15:48;;;;;;;6.30;5.07;;;7.40;50.60;;;;;;5167528;28;20190;-52
2022/03/08 08:18:20;;;;;;;8.70;4.50;;;6.90;52.30;;;;;;5160674;28;20594;-51
2022/03/08 08:20:51;;;;;;;6.47;5.00;;;6.50;53.80;;;;;;5166337;28;20176;-50
2022/03/08 08:23:21;;;;;;;8.30;4.60;;;6.10;55.80;;;;;;5162911;28;20464;-51
2022/03/08 08:25:52;;;;;;;7.77;5.93;;;5.90;59.30;;;;;;5156379;28;20184;-51
2022/03/08 08:28:23;;;;;;;5.37;4.50;;;5.90;65.10;;;;;;5157308;28;21044;-51
2022/03/08 08:30:53;;;;;;;7.73;5.63;;;5.80;71.40;;;;;;5162043;28;20194;-51
2022/03/08 08:33:24;;;;;;;4.70;4.30;;;5.70;77.80;;;;;;5165182;28;20261;-51
2022/03/08 08:35:56;;;;;;;6.00;5.10;;;5.60;82.10;;;;;;5156710;28;20231;-51
2022/03/08 08:38:26;;;;;;;8.20;4.50;;;5.50;85.90;;;;;;5163972;28;20231;-51
2022/03/08 08:40:57;;;;;;;3.60;3.30;;;5.50;87.60;;;;;;5158887;28;20580;-51
2022/03/08 08:43:27;;;;;;;2.80;2.60;;;5.40;88.00;;;;;;5165262;28;20208;-51
2022/03/08 08:45:58;;;;;;;4.03;3.63;;;5.30;86.90;;;;;;5162205;28;20218;-51
2022/03/08 08:48:29;;;;;;;5.90;3.37;;;5.40;88.30;;;;;;5176177;28;20216;-51
2022/03/08 08:51:00;;;;;;;5.80;3.03;;;5.40;88.50;;;;;;5184217;28;20261;-51
2022/03/08 08:53:30;;;;;;;4.57;2.90;;;5.40;89.10;;;;;;5168567;28;20914;-51
2022/03/08 08:56:01;;;;;;;13.70;2.97;;;5.50;90.30;;;;;;5173203;28;20203;-51
2022/03/08 08:58:31;;;;;;;7.17;4.10;;;5.60;90.80;;;;;;5164354;28;20219;-50
2022/03/08 09:01:02;;;;;;;4.70;3.90;;;5.70;90.20;;;;;;5149555;28;20253;-51
2022/03/08 09:03:33;;;;;;;4.17;3.40;;;5.70;87.70;;;;;;5170445;28;20235;-50
2022/03/08 09:06:03;;;;;;;5.93;3.77;;;5.70;90.00;;;;;;5161639;28;20173;-51
2022/03/08 09:08:34;;;;;;;4.30;3.27;;;5.80;89.40;;;;;;5170254;28;20211;-50
2022/03/08 09:11:08;;;;;;;4.90;4.27;;;6.00;89.50;;;;;;5165388;28;20192;-51
2022/03/08 09:13:39;;;;;;;12.10;4.93;;;6.10;88.90;;;;;;5161034;28;20230;-51
2022/03/08 09:16:10;;;;;;;5.67;3.77;;;6.10;80.70;;;;;;5164246;28;20447;-52
2022/03/08 09:18:44;;;;;;;4.63;4.23;;;6.00;79.00;;;;;;5168045;28;20477;-50
2022/03/08 09:21:14;;;;;;;8.53;3.93;;;6.00;79.30;;;;;;5164095;28;20194;-50
2022/03/08 09:23:45;;;;;;;5.00;4.10;;;6.10;79.50;;;;;;5165372;28;20467;-50
2022/03/08 09:26:15;;;;;;;7.23;4.57;;;6.10;79.50;;;;;;5170335;28;20264;-52
2022/03/08 09:28:46;;;;;;;6.87;3.90;;;6.10;76.20;;;;;;5166761;28;20200;-51
2022/03/08 09:31:17;;;;;;;4.63;3.73;;;6.20;75.00;;;;;;5167815;28;20267;-51
2022/03/08 09:33:47;;;;;;;3.83;3.30;;;6.30;75.70;;;;;;5172320;28;20182;-53
2022/03/08 09:36:18;;;;;;;4.47;4.03;;;6.40;74.60;;;;;;5171543;28;20192;-52
2022/03/08 09:38:49;;;;;;;6.07;3.47;;;6.60;74.10;;;;;;5163461;28;20218;-51
2022/03/08 09:41:20;;;;;;;4.53;4.23;;;6.60;71.70;;;;;;5161749;28;20284;-50
2022/03/08 09:43:51;;;;;;;4.63;3.83;;;6.70;70.10;;;;;;5163779;28;20634;-50
2022/03/08 09:46:22;;;;;;;5.87;4.17;;;6.50;68.50;;;;;;5170323;28;20526;-52
2022/03/08 09:48:52;;;;;;;5.50;4.30;;;6.40;69.30;;;;;;5166330;28;20249;-52
2022/03/08 09:51:23;;;;;;;6.70;4.40;;;6.30;71.60;;;;;;5153872;28;20185;-52
2022/03/08 09:53:54;;;;;;;7.93;5.00;;;6.40;72.20;;;;;;5169966;28;20174;-50
2022/03/08 09:56:25;;;;;;;5.70;3.63;;;6.40;69.70;;;;;;5163260;28;20451;-51
2022/03/08 09:58:55;;;;;;;8.63;4.57;;;6.40;67.20;;;;;;5169107;28;20216;-50
2022/03/08 10:01:27;;;;;;;3.10;2.90;;;6.50;67.70;;;;;;5167012;28;20191;-50
2022/03/08 10:03:59;;;;;;;4.67;3.57;;;6.70;65.50;;;;;;5164114;28;20518;-50
2022/03/08 10:06:44;;;;;;;2.80;2.50;;;6.70;63.60;;;;;;5162734;28;20470;-51
2022/03/08 10:09:18;;;;;;;7.20;3.77;;;6.80;60.60;;;;;;5161679;28;20431;-50
2022/03/08 10:11:55;;;;;;;5.53;2.60;;;6.70;60.50;;;;;;5164830;28;20446;-50
2022/03/08 10:14:39;;;;;;;3.57;3.27;;;6.80;60.60;;;;;;5164201;28;20449;-51
2022/03/08 10:17:37;;;;;;;5.80;3.33;;;7.00;60.60;;;;;;5159968;28;20490;-51
2022/03/08 10:20:10;;;;;;;4.87;3.57;;;7.00;60.00;;;;;;5163874;28;20439;-52
2022/03/08 10:22:41;;;;;;;6.73;2.67;;;7.20;59.90;;;;;;5166833;28;20483;-51
2022/03/08 10:25:15;;;;;;;2.93;2.73;;;7.40;59.70;;;;;;5160527;28;20429;-50
2022/03/08 10:27:54;;;;;;;3.50;3.13;;;7.50;58.40;;;;;;5157857;28;20448;-50
2022/03/08 10:30:29;;;;;;;3.13;2.70;;;7.60;58.10;;;;;;5161178;28;20419;-51
2022/03/08 10:32:59;;;;;;;3.80;3.17;;;7.80;57.50;;;;;;5162993;28;20467;-51
2022/03/08 10:35:31;;;;;;;2.40;2.30;;;8.00;56.60;;;;;;5164776;28;20466;-52
2022/03/08 10:38:07;;;;;;;4.00;2.90;;;8.10;56.30;;;;;;5161249;28;20701;-52
2022/03/08 10:40:39;;;;;;;10.23;2.20;;;8.10;53.50;;;;;;5164471;28;20436;-50
2022/03/08 10:43:13;;;;;;;2.70;2.50;;;8.10;52.90;;;;;;5170316;28;20472;-51
2022/03/08 10:45:48;;;;;;;1.97;1.90;;;8.10;52.80;;;;;;5168544;28;20947;-52
2022/03/08 10:48:20;;;;;;;3.77;3.57;;;8.10;52.80;;;;;;5169373;28;20454;-53
2022/03/08 10:50:50;;;;;;;4.50;2.57;;;8.10;52.80;;;;;;5165301;28;20499;-51
2022/03/08 10:53:25;;;;;;;3.47;3.20;;;8.10;52.80;;;;;;5160447;28;20939;-51
2022/03/08 10:55:56;;;;;;;6.30;3.40;;;8.30;52.40;;;;;;5158558;28;20211;-56
2022/03/08 10:58:26;;;;;;;2.50;2.33;;;8.30;52.80;;;;;;5154235;28;20504;-51
2022/03/08 11:00:59;;;;;;;5.20;2.37;;;8.30;52.30;;;;;;5161696;28;20185;-52
2022/03/08 11:03:29;;;;;;;4.10;3.00;;;8.30;52.00;;;;;;5168774;28;20200;-52
2022/03/08 11:06:05;;;;;;;3.03;2.27;;;8.10;51.80;;;;;;5164456;28;20819;-52
2022/03/08 11:08:36;;;;;;;2.47;2.30;;;8.10;52.60;;;;;;5149807;28;20196;-51
2022/03/08 11:11:06;;;;;;;3.30;2.07;;;8.20;51.80;;;;;;5146648;28;20437;-51
2022/03/08 11:13:37;;;;;;;2.73;2.53;;;8.10;51.00;;;;;;5159685;28;20268;-52
2022/03/08 11:16:09;;;;;;;3.27;2.10;;;8.10;51.40;;;;;;5156700;28;20569;-53
2022/03/08 11:18:43;;;;;;;1.73;1.50;;;8.10;51.20;;;;;;5159970;28;20278;-51
2022/03/08 11:21:14;;;;;;;2.00;1.90;;;8.20;51.30;;;;;;5146719;28;20986;-51
2022/03/08 11:23:45;;;;;;;7.13;2.00;;;8.40;50.80;;;;;;5161672;28;20464;-51
2022/03/08 11:26:15;;;;;;;5.50;1.80;;;8.40;50.90;;;;;;5164749;28;20551;-52
2022/03/08 11:28:47;;;;;;;9.27;4.67;;;8.40;50.10;;;;;;5158676;28;21465;-50
2022/03/08 11:31:22;;;;;;;2.70;1.83;;;8.40;50.40;;;;;;5162004;28;20545;-52
2022/03/08 11:34:01;;;;;;;2.60;2.00;;;8.40;49.70;;;;;;5149345;28;20443;-52
2022/03/08 11:36:38;;;;;;;1.90;1.80;;;8.40;49.90;;;;;;5159579;28;20451;-54
2022/03/08 11:39:21;;;;;;;3.07;2.77;;;8.40;49.90;;;;;;5165968;28;20443;-50
2022/03/08 11:42:18;;;;;;;1.63;1.63;;;8.50;50.10;;;;;;5162637;28;20456;-51
2022/03/08 11:44:59;;;;;;;2.50;2.40;;;8.60;49.60;;;;;;5165339;28;20436;-50
2022/03/08 11:47:58;;;;;;;1.93;1.83;;;8.60;49.30;;;;;;5148526;28;20469;-50
2022/03/08 11:50:34;;;;;;;2.20;2.00;;;8.80;49.80;;;;;;5171672;28;20436;-52
2022/03/08 11:53:07;;;;;;;8.00;3.47;;;9.10;49.10;;;;;;5156535;28;20442;-52
2022/03/08 11:55:43;;;;;;;3.90;3.50;;;9.20;48.90;;;;;;5159580;28;20911;-50
2022/03/08 11:58:19;;;;;;;3.17;2.57;;;9.30;48.10;;;;;;5157562;28;20483;-50
2022/03/08 12:00:53;;;;;;;72.70;35.50;;;9.30;48.10;;;;;;5162960;28;20836;-52
2022/03/08 12:03:24;;;;;;;23.50;10.40;;;9.40;48.20;;;;;;5159045;28;20462;-50
2022/03/08 12:06:01;;;;;;;5.63;4.47;;;9.50;48.00;;;;;;5161592;28;20433;-50
2022/03/08 12:08:38;;;;;;;14.63;5.70;;;9.60;47.30;;;;;;5157126;28;20219;-53
2022/03/08 12:11:31;;;;;;;7.57;3.60;;;9.70;46.90;;;;;;5163507;28;20843;-50
2022/03/08 12:14:04;;;;;;;2.10;2.00;;;9.80;46.80;;;;;;5157893;28;20537;-50
2022/03/08 12:16:39;;;;;;;4.30;2.47;;;9.70;45.80;;;;;;5160518;28;20969;-51
2022/03/08 12:19:11;;;;;;;2.43;2.30;;;9.60;46.00;;;;;;5168036;28;20804;-52
2022/03/08 12:21:44;;;;;;;4.20;2.50;;;9.60;45.40;;;;;;5168201;28;20428;-53
2022/03/08 12:24:19;;;;;;;3.87;3.53;;;9.60;45.50;;;;;;5171724;28;20442;-50
2022/03/08 12:26:53;;;;;;;3.00;2.80;;;9.60;45.50;;;;;;5169326;28;20442;-51
2022/03/08 12:29:36;;;;;;;3.90;1.90;;;9.70;45.90;;;;;;5165790;28;20450;-51
2022/03/08 12:32:07;;;;;;;1.80;1.70;;;9.90;46.10;;;;;;5171479;28;20533;-51
2022/03/08 12:34:42;;;;;;;2.30;2.10;;;10.00;44.80;;;;;;5169788;28;20609;-49
2022/03/08 12:37:23;;;;;;;5.47;3.50;;;10.20;44.40;;;;;;5162321;28;20227;-50
2022/03/08 12:40:09;;;;;;;1.83;1.73;;;10.10;43.50;;;;;;5163796;28;20527;-52
2022/03/08 12:42:43;;;;;;;3.20;1.63;;;10.10;43.30;;;;;;5161589;28;20824;-50
2022/03/08 12:45:25;;;;;;;3.00;2.60;;;10.00;43.40;;;;;;5159686;28;20882;-51
2022/03/08 12:47:58;;;;;;;2.47;2.30;;;10.10;44.00;;;;;;5163106;28;20982;-50
2022/03/08 12:50:42;;;;;;;5.13;2.20;;;10.10;43.30;;;;;;5162648;28;20530;-49
2022/03/08 12:53:20;;;;;;;1.80;1.70;;;10.20;43.70;;;;;;5159427;28;20448;-51
2022/03/08 12:55:53;;;;;;;3.00;2.80;;;10.10;42.90;;;;;;5158547;28;20451;-51
2022/03/08 12:58:33;;;;;;;4.17;2.33;;;10.10;42.80;;;;;;5159691;28;20882;-51
2022/03/08 13:01:06;;;;;;;3.13;1.90;;;10.10;42.70;;;;;;5167374;28;20442;-52
2022/03/08 13:03:42;;;;;;;3.23;2.50;;;10.10;43.00;;;;;;5165847;28;20535;-50
2022/03/08 13:06:13;;;;;;;2.83;1.70;;;10.20;43.40;;;;;;5162508;28;20438;-50
2022/03/08 13:08:44;;;;;;;2.10;2.00;;;10.10;42.70;;;;;;5153047;28;20451;-51
2022/03/08 13:11:15;;;;;;;4.60;2.53;;;10.10;43.10;;;;;;5161194;28;20177;-51
2022/03/08 13:13:46;;;;;;;1.93;1.83;;;10.20;42.70;;;;;;5159694;28;20212;-50
2022/03/08 13:16:19;;;;;;;2.10;2.00;;;10.20;43.30;;;;;;5169774;28;20507;-50